createdAt,value
2023-02-13T00:02:01.499Z,91.01
2023-02-13T00:04:31.322Z,91.16
2023-02-13T00:07:01.151Z,91.11
2023-02-13T00:09:31.069Z,91.40
2023-02-13T00:12:03.496Z,91.23
2023-02-13T00:14:33.503Z,91.08
2023-02-13T00:17:03.248Z,91.23
2023-02-13T00:19:33.006Z,91.15
2023-02-13T00:22:03.122Z,90.93
2023-02-13T00:24:33.209Z,91.07
2023-02-13T00:27:05.587Z,91.05
2023-02-13T00:29:35.523Z,90.89
2023-02-13T00:32:05.502Z,90.77
2023-02-13T00:34:35.336Z,90.89
2023-02-13T00:37:05.150Z,90.71
2023-02-13T00:39:35.660Z,90.99
2023-02-13T00:42:08.730Z,90.88
2023-02-13T00:44:38.539Z,90.94
2023-02-13T00:47:08.373Z,91.15
2023-02-13T00:49:38.330Z,90.91
2023-02-13T00:52:08.229Z,91.37
2023-02-13T00:54:38.084Z,91.29
2023-02-13T00:57:10.593Z,91.63
2023-02-13T00:59:40.450Z,91.98
2023-02-13T01:02:10.196Z,92.04
2023-02-13T01:04:40.272Z,91.76
2023-02-13T01:07:10.368Z,91.93
2023-02-13T01:09:40.152Z,92.03
2023-02-13T01:12:12.682Z,92.19
2023-02-13T01:14:42.400Z,92.12
2023-02-13T01:17:12.170Z,92.59
2023-02-13T01:19:44.253Z,93.16
2023-02-13T01:22:14.065Z,92.92
2023-02-13T01:24:43.879Z,92.79
2023-02-13T01:27:17.253Z,92.91
2023-02-13T01:29:47.839Z,92.84
2023-02-13T01:32:17.749Z,92.43
2023-02-13T01:34:47.677Z,92.37
2023-02-13T01:37:17.873Z,92.35
2023-02-13T01:39:47.974Z,92.28
2023-02-13T01:42:25.590Z,92.02
2023-02-13T01:44:56.886Z,92.30
2023-02-13T01:47:30.737Z,92.05
2023-02-13T01:50:09.051Z,92.26
2023-02-13T01:52:41.829Z,92.43
2023-02-13T01:55:12.451Z,92.62
2023-02-13T01:57:47.589Z,92.44
2023-02-13T02:00:19.695Z,92.47
2023-02-13T02:02:54.368Z,92.52
2023-02-13T02:05:27.288Z,92.39
2023-02-13T02:07:59.354Z,92.50
2023-02-13T02:10:29.387Z,92.33
2023-02-13T02:13:07.919Z,92.03
2023-02-13T02:15:37.827Z,92.53
2023-02-13T02:18:09.886Z,92.50
2023-02-13T02:21:15.001Z,92.26
2023-02-13T02:24:11.034Z,92.59
2023-02-13T02:27:01.499Z,92.24
2023-02-13T02:30:18.137Z,92.60
2023-02-13T02:33:00.698Z,92.47
2023-02-13T02:35:38.666Z,92.65
2023-02-13T02:38:24.737Z,91.96
2023-02-13T02:41:04.681Z,91.98
2023-02-13T02:43:47.043Z,91.67
2023-02-13T02:46:24.923Z,92.25
2023-02-13T02:49:12.472Z,92.00
2023-02-13T02:51:51.618Z,92.25
2023-02-13T02:54:46.199Z,92.24
2023-02-13T02:57:20.384Z,92.46
2023-02-13T03:00:05.491Z,92.60
2023-02-13T03:02:49.174Z,92.36
2023-02-13T03:05:38.345Z,92.15
2023-02-13T03:08:08.724Z,92.29
2023-02-13T03:10:53.131Z,92.41
2023-02-13T03:13:41.711Z,92.07
2023-02-13T03:16:31.233Z,92.09
2023-02-13T03:19:13.974Z,92.39
2023-02-13T03:22:05.335Z,92.84
2023-02-13T03:24:47.264Z,92.60
2023-02-13T03:27:46.066Z,92.75
2023-02-13T03:30:23.965Z,93.12
2023-02-13T03:33:04.709Z,93.09
2023-02-13T03:35:56.288Z,93.17
2023-02-13T03:38:36.236Z,92.90
2023-02-13T03:41:21.146Z,92.55
2023-02-13T03:44:03.665Z,92.35
2023-02-13T03:46:37.407Z,92.70
2023-02-13T03:49:22.672Z,92.70
2023-02-13T03:51:57.362Z,92.46
2023-02-13T03:54:51.301Z,92.10
2023-02-13T03:57:36.295Z,92.33
2023-02-13T04:00:11.482Z,92.74
2023-02-13T04:02:50.958Z,92.50
2023-02-13T04:05:25.440Z,92.80
2023-02-13T04:07:55.705Z,92.85
2023-02-13T04:10:30.578Z,92.82
2023-02-13T04:13:06.250Z,93.04
2023-02-13T04:15:41.755Z,93.27
2023-02-13T04:18:18.329Z,92.77
2023-02-13T04:20:48.332Z,92.99
2023-02-13T04:23:18.581Z,93.05
2023-02-13T04:25:55.085Z,92.79
2023-02-13T04:28:25.012Z,93.03
2023-02-13T04:30:55.182Z,93.12
2023-02-13T04:33:25.211Z,93.06
2023-02-13T04:35:55.038Z,93.29
2023-02-13T04:38:24.825Z,93.63
2023-02-13T04:40:57.513Z,93.60
2023-02-13T04:43:30.451Z,93.78
2023-02-13T04:46:00.314Z,93.66
2023-02-13T04:48:30.346Z,93.59
2023-02-13T04:51:00.429Z,93.56
2023-02-13T04:53:30.515Z,93.30
2023-02-13T04:56:03.035Z,93.52
2023-02-13T04:58:32.813Z,93.53
2023-02-13T05:01:02.569Z,93.64
2023-02-13T05:03:32.384Z,93.30
2023-02-13T05:06:02.184Z,93.73
2023-02-13T05:08:32.141Z,93.77
2023-02-13T05:11:04.582Z,93.80
2023-02-13T05:13:34.480Z,93.66
2023-02-13T05:16:04.374Z,93.91
2023-02-13T05:18:34.232Z,93.82
2023-02-13T05:21:16.439Z,94.17
2023-02-13T05:23:46.264Z,94.35
2023-02-13T05:26:21.676Z,94.17
2023-02-13T05:29:03.811Z,94.39
2023-02-13T05:31:38.514Z,94.67
2023-02-13T05:34:08.572Z,94.24
2023-02-13T05:36:38.352Z,94.22
2023-02-13T05:39:08.370Z,94.39
2023-02-13T05:41:40.757Z,94.47
2023-02-13T05:44:10.648Z,94.42
2023-02-13T05:46:41.326Z,94.71
2023-02-13T05:49:12.635Z,94.27
2023-02-13T05:51:42.434Z,94.69
2023-02-13T05:54:12.294Z,94.53
2023-02-13T05:56:44.704Z,94.01
2023-02-13T05:59:14.479Z,94.22
2023-02-13T06:01:44.769Z,94.44
2023-02-13T06:04:14.552Z,94.33
2023-02-13T06:06:45.658Z,94.24
2023-02-13T06:09:15.646Z,94.49
2023-02-13T06:11:48.055Z,94.64
2023-02-13T06:14:17.939Z,94.45
2023-02-13T06:16:47.727Z,94.47
2023-02-13T06:19:17.479Z,94.25
2023-02-13T06:21:47.313Z,94.35
2023-02-13T06:24:17.183Z,93.92
2023-02-13T06:26:49.541Z,93.89
2023-02-13T06:29:19.378Z,93.78
2023-02-13T06:31:49.227Z,93.63
2023-02-13T06:34:19.340Z,93.66
2023-02-13T06:36:49.748Z,93.52
2023-02-13T06:39:19.491Z,93.28
2023-02-13T06:41:51.912Z,93.10
2023-02-13T06:44:21.794Z,92.96
2023-02-13T06:46:51.666Z,92.86
2023-02-13T06:49:21.542Z,92.92
2023-02-13T06:51:51.365Z,92.63
2023-02-13T06:54:26.596Z,92.47
2023-02-13T06:57:03.714Z,92.59
2023-02-13T06:59:33.512Z,92.31
2023-02-13T07:02:03.317Z,92.50
2023-02-13T07:04:33.328Z,92.05
2023-02-13T07:07:03.151Z,91.92
2023-02-13T07:09:34.202Z,91.71
2023-02-13T07:12:09.180Z,91.64
2023-02-13T07:14:38.921Z,91.76
2023-02-13T07:17:11.125Z,91.53
2023-02-13T07:19:40.954Z,91.83
2023-02-13T07:22:10.725Z,91.77
2023-02-13T07:24:40.952Z,91.85
2023-02-13T07:27:13.386Z,91.93
2023-02-13T07:29:43.186Z,91.85
2023-02-13T07:32:13.356Z,91.95
2023-02-13T07:34:59.592Z,91.73
2023-02-13T07:37:31.586Z,92.08
2023-02-13T07:40:01.793Z,92.25
2023-02-13T07:42:35.780Z,91.91
2023-02-13T07:45:07.659Z,91.84
2023-02-13T07:47:37.834Z,92.37
2023-02-13T07:50:08.788Z,92.51
2023-02-13T07:52:39.318Z,92.65
2023-02-13T07:55:11.714Z,92.65
2023-02-13T07:57:44.169Z,92.85
2023-02-13T08:00:15.452Z,92.79
2023-02-13T08:02:45.466Z,93.05
2023-02-13T08:05:15.867Z,92.78
2023-02-13T08:07:45.712Z,92.53
2023-02-13T08:10:29.514Z,92.43
2023-02-13T08:13:02.133Z,92.25
2023-02-13T08:15:32.113Z,91.99
2023-02-13T08:18:01.844Z,92.10
2023-02-13T08:20:31.734Z,92.39
2023-02-13T08:23:06.872Z,92.12
2023-02-13T08:25:37.035Z,92.43
2023-02-13T08:28:09.518Z,93.03
2023-02-13T08:30:39.377Z,92.76
2023-02-13T08:33:09.434Z,93.29
2023-02-13T08:35:39.268Z,93.28
2023-02-13T08:38:09.009Z,93.13
2023-02-13T08:40:38.920Z,93.15
2023-02-13T08:43:11.394Z,93.23
2023-02-13T08:45:41.567Z,93.42
2023-02-13T08:48:11.476Z,93.61
2023-02-13T08:50:41.264Z,93.70
2023-02-13T08:53:11.596Z,93.68
2023-02-13T08:55:41.261Z,93.84
2023-02-13T08:58:13.571Z,93.78
2023-02-13T09:00:43.381Z,93.82
2023-02-13T09:03:13.186Z,93.94
2023-02-13T09:05:43.231Z,93.65
2023-02-13T09:08:13.907Z,93.31
2023-02-13T09:10:45.290Z,93.62
2023-02-13T09:13:17.792Z,93.73
2023-02-13T09:15:47.788Z,93.49
2023-02-13T09:18:17.576Z,93.37
2023-02-13T09:20:47.397Z,93.23
2023-02-13T09:23:17.524Z,93.29
2023-02-13T09:25:47.295Z,93.37
2023-02-13T09:28:19.653Z,92.50
2023-02-13T09:30:49.611Z,93.02
2023-02-13T09:33:19.774Z,92.68
2023-02-13T09:35:49.516Z,92.67
2023-02-13T09:38:19.485Z,92.52
2023-02-13T09:40:54.143Z,92.13
2023-02-13T09:46:47.642Z,91.70
2023-02-13T09:49:22.515Z,91.76
2023-02-13T09:51:59.362Z,91.47
2023-02-13T09:54:32.259Z,91.37
2023-02-13T09:57:07.332Z,91.52
2023-02-13T09:59:48.917Z,90.51
2023-02-13T10:02:44.616Z,87.58
2023-02-13T10:05:33.956Z,89.01
2023-02-13T10:08:11.226Z,90.20
2023-02-13T10:10:56.254Z,90.02
2023-02-13T10:13:38.222Z,89.14
2023-02-13T10:16:20.866Z,86.64
2023-02-13T10:18:57.589Z,87.39
2023-02-13T10:21:33.320Z,88.57
2023-02-13T10:24:08.570Z,89.35
2023-02-13T10:26:48.340Z,88.77
2023-02-13T10:29:36.428Z,88.03
2023-02-13T10:32:11.323Z,86.09
2023-02-13T10:34:49.036Z,87.10
2023-02-13T10:37:21.752Z,84.68
2023-02-13T10:39:53.683Z,84.50
2023-02-13T10:42:25.960Z,85.62
2023-02-13T10:45:11.969Z,85.86
2023-02-13T10:48:00.906Z,86.25
2023-02-13T10:50:45.148Z,87.00
2023-02-13T10:53:22.230Z,87.36
2023-02-13T10:56:08.767Z,83.57
2023-02-13T10:58:54.639Z,82.75
2023-02-13T11:01:32.066Z,83.99
2023-02-13T11:04:10.190Z,85.10
2023-02-13T11:06:45.914Z,83.38
2023-02-13T11:09:16.343Z,83.50
2023-02-13T11:11:46.433Z,84.19
2023-02-13T11:14:19.595Z,84.26
2023-02-13T11:17:01.358Z,82.94
2023-02-13T11:19:36.261Z,83.86
2023-02-13T11:22:14.632Z,83.69
2023-02-13T11:24:53.576Z,82.63
2023-02-13T11:27:30.111Z,81.12
2023-02-13T11:30:02.185Z,81.91
2023-02-13T11:32:33.774Z,81.85
2023-02-13T11:35:30.655Z,77.70
2023-02-13T11:38:26.046Z,76.39
2023-02-13T11:41:09.387Z,75.51
2023-02-13T11:43:46.786Z,76.29
2023-02-13T11:46:22.497Z,76.63
2023-02-13T11:49:04.201Z,76.84
2023-02-13T11:51:46.016Z,76.02
2023-02-13T11:54:33.713Z,74.75
2023-02-13T11:57:06.817Z,76.17
2023-02-13T11:59:43.542Z,75.85
2023-02-13T12:02:19.682Z,72.90
2023-02-13T12:04:51.290Z,72.36
2023-02-13T12:07:25.221Z,74.22
2023-02-13T12:10:04.246Z,74.09
2023-02-13T12:12:41.400Z,73.06
2023-02-13T12:15:20.908Z,73.75
2023-02-13T12:18:07.503Z,75.00
2023-02-13T12:20:47.060Z,75.80
2023-02-13T12:23:31.852Z,74.10
2023-02-13T12:26:21.731Z,73.90
2023-02-13T12:29:23.266Z,71.64
2023-02-13T12:32:04.793Z,74.46
2023-02-13T12:34:56.853Z,74.79
2023-02-13T12:37:44.409Z,72.75
2023-02-13T12:40:34.294Z,72.86
2023-02-13T12:43:33.838Z,71.70
2023-02-13T12:46:10.957Z,73.14
2023-02-13T12:48:48.718Z,72.63
2023-02-13T12:51:33.021Z,71.68
2023-02-13T12:54:20.598Z,72.53
2023-02-13T12:57:09.461Z,72.78
2023-02-13T12:59:56.345Z,72.25
2023-02-13T13:02:50.217Z,72.37
2023-02-13T13:05:34.665Z,72.16
2023-02-13T13:08:23.703Z,70.65
2023-02-13T13:11:07.988Z,71.88
2023-02-13T13:13:55.557Z,72.18
2023-02-13T13:16:37.046Z,72.22
2023-02-13T13:19:18.002Z,71.36
2023-02-13T13:21:55.622Z,70.48
2023-02-13T13:24:44.318Z,71.32
2023-02-13T13:27:23.437Z,71.73
2023-02-13T13:29:59.030Z,70.48
2023-02-13T13:32:34.118Z,69.82
2023-02-13T13:35:05.505Z,69.82
2023-02-13T13:37:40.695Z,69.54
2023-02-13T13:40:32.079Z,70.13
2023-02-13T13:43:08.105Z,71.26
2023-02-13T13:45:45.922Z,70.03
2023-02-13T13:48:40.569Z,69.38
2023-02-13T13:51:12.800Z,70.69
2023-02-13T13:54:18.766Z,70.88
2023-02-13T13:57:15.698Z,69.12
2023-02-13T14:00:17.216Z,67.70
2023-02-13T14:02:52.056Z,69.57
2023-02-13T14:05:28.042Z,69.66
2023-02-13T14:07:59.990Z,70.02
2023-02-13T14:10:59.895Z,69.02
2023-02-13T14:13:35.914Z,68.92
2023-02-13T14:16:07.180Z,69.48
2023-02-13T14:18:38.866Z,69.92
2023-02-13T14:21:25.932Z,67.23
2023-02-13T14:24:00.760Z,69.29
2023-02-13T14:26:37.566Z,68.92
2023-02-13T14:29:33.249Z,67.10
2023-02-13T14:32:22.527Z,68.06
2023-02-13T14:34:59.509Z,68.95
2023-02-13T14:37:39.903Z,68.61
2023-02-13T14:40:15.424Z,66.96
2023-02-13T14:42:48.946Z,67.80
2023-02-13T14:45:22.677Z,67.84
2023-02-13T14:47:58.669Z,67.46
2023-02-13T14:50:31.755Z,67.18
2023-02-13T14:53:11.125Z,66.43
2023-02-13T14:55:45.989Z,66.66
2023-02-13T14:58:23.641Z,67.32
2023-02-13T15:01:00.382Z,66.96
2023-02-13T15:03:34.387Z,67.50
2023-02-13T15:06:07.733Z,67.55
2023-02-13T15:08:53.404Z,65.67
2023-02-13T15:11:43.132Z,64.04
2023-02-13T15:14:28.606Z,65.50
2023-02-13T15:17:02.587Z,66.64
2023-02-13T15:19:32.883Z,67.28
2023-02-13T15:22:04.900Z,66.96
2023-02-13T15:24:41.769Z,66.07
2023-02-13T15:27:21.847Z,66.01
2023-02-13T15:30:00.724Z,65.90
2023-02-13T15:32:34.079Z,66.16
2023-02-13T15:35:03.897Z,66.70
2023-02-13T15:37:34.399Z,65.91
2023-02-13T15:40:27.170Z,64.67
2023-02-13T15:42:58.692Z,66.16
2023-02-13T15:45:30.498Z,65.98
2023-02-13T15:48:00.674Z,66.21
2023-02-13T15:50:34.028Z,66.28
2023-02-13T15:53:07.809Z,65.87
2023-02-13T15:55:40.270Z,66.22
2023-02-13T15:58:16.120Z,66.37
2023-02-13T16:00:46.483Z,67.56
2023-02-13T16:03:20.373Z,67.94
2023-02-13T16:05:50.698Z,68.55
2023-02-13T16:08:33.309Z,68.38
2023-02-13T16:11:23.854Z,69.00
2023-02-13T16:14:02.931Z,69.45
2023-02-13T16:16:36.212Z,69.95
2023-02-13T16:19:06.286Z,70.18
2023-02-13T16:21:36.176Z,70.58
2023-02-13T16:24:09.494Z,70.89
2023-02-13T16:26:46.655Z,71.12
2023-02-13T16:29:22.356Z,71.22
2023-02-13T16:31:53.568Z,71.56
2023-02-13T16:34:29.310Z,71.43
2023-02-13T16:37:00.013Z,71.92
2023-02-13T16:39:31.592Z,72.27
2023-02-13T16:42:04.325Z,72.38
2023-02-13T16:44:37.272Z,72.59
2023-02-13T16:47:08.912Z,72.82
2023-02-13T16:49:39.880Z,72.94
2023-02-13T16:52:19.618Z,72.69
2023-02-13T16:54:56.964Z,72.70
2023-02-13T16:57:33.136Z,73.34
2023-02-13T17:00:11.776Z,73.19
2023-02-13T17:02:42.798Z,73.70
2023-02-13T17:05:24.668Z,73.75
2023-02-13T17:07:57.228Z,74.25
2023-02-13T17:10:31.346Z,74.14
2023-02-13T17:13:05.570Z,74.00
2023-02-13T17:15:35.526Z,74.50
2023-02-13T17:18:05.340Z,75.09
2023-02-13T17:20:37.424Z,74.60
2023-02-13T17:23:08.870Z,74.56
2023-02-13T17:25:41.366Z,75.13
2023-02-13T17:28:18.813Z,74.87
2023-02-13T17:30:50.316Z,75.08
2023-02-13T17:33:24.690Z,74.81
2023-02-13T17:35:55.243Z,74.99
2023-02-13T17:38:25.754Z,75.13
2023-02-13T17:40:55.601Z,75.39
2023-02-13T17:43:30.133Z,75.01
2023-02-13T17:46:01.251Z,75.45
2023-02-13T17:48:31.333Z,75.34
2023-02-13T17:51:01.436Z,75.50
2023-02-13T17:53:33.167Z,75.44
2023-02-13T17:56:02.932Z,75.65
2023-02-13T17:58:40.216Z,75.36
2023-02-13T18:01:10.181Z,75.99
2023-02-13T18:03:40.597Z,75.98
2023-02-13T18:06:16.319Z,75.78
2023-02-13T18:08:46.076Z,75.87
2023-02-13T18:11:16.229Z,75.98
2023-02-13T18:13:48.811Z,76.02
2023-02-13T18:16:19.005Z,76.02
2023-02-13T18:18:48.869Z,76.35
2023-02-13T18:21:18.704Z,76.36
2023-02-13T18:23:48.593Z,76.21
2023-02-13T18:26:18.516Z,76.65
2023-02-13T18:28:52.679Z,76.88
2023-02-13T18:31:22.833Z,77.10
2023-02-13T18:33:54.869Z,76.90
2023-02-13T18:36:24.665Z,76.93
2023-02-13T18:38:54.936Z,77.06
2023-02-13T18:41:26.153Z,77.27
2023-02-13T18:43:59.153Z,77.59
2023-02-13T18:46:29.126Z,77.66
2023-02-13T18:48:59.270Z,77.54
2023-02-13T18:51:29.176Z,77.37
2023-02-13T18:54:00.094Z,77.79
2023-02-13T18:56:29.992Z,77.72
2023-02-13T18:59:02.437Z,78.11
2023-02-13T19:01:32.284Z,77.95
2023-02-13T19:04:02.201Z,78.15
2023-02-13T19:06:32.469Z,78.25
2023-02-13T19:09:02.619Z,78.37
2023-02-13T19:11:34.487Z,78.74
2023-02-13T19:14:07.010Z,78.56
2023-02-13T19:16:38.371Z,78.24
2023-02-13T19:19:10.499Z,78.82
2023-02-13T19:21:41.775Z,78.85
2023-02-13T19:24:15.520Z,78.92
2023-02-13T19:26:46.174Z,78.87
2023-02-13T19:29:18.666Z,79.09
2023-02-13T19:31:48.752Z,78.98
2023-02-13T19:34:18.768Z,79.20
2023-02-13T19:36:48.598Z,79.29
2023-02-13T19:39:18.550Z,79.52
2023-02-13T19:41:48.409Z,79.61
2023-02-13T19:44:20.941Z,79.66
2023-02-13T19:46:51.237Z,79.49
2023-02-13T19:49:22.526Z,79.73
2023-02-13T19:51:52.509Z,79.57
2023-02-13T19:54:22.407Z,80.09
2023-02-13T19:56:54.838Z,79.88
2023-02-13T19:59:27.432Z,80.08
2023-02-13T20:01:57.286Z,80.33
2023-02-13T20:04:27.569Z,80.49
2023-02-13T20:06:58.508Z,80.39
2023-02-13T20:09:28.623Z,80.76
2023-02-13T20:11:58.548Z,80.72
2023-02-13T20:14:30.987Z,80.54
2023-02-13T20:17:01.257Z,80.73
2023-02-13T20:19:31.229Z,81.01
2023-02-13T20:22:01.916Z,81.22
2023-02-13T20:24:33.097Z,81.22
2023-02-13T20:27:02.885Z,81.24
2023-02-13T20:29:37.180Z,81.37
2023-02-13T20:32:07.687Z,81.43
2023-02-13T20:34:58.387Z,81.28
2023-02-13T20:37:27.725Z,81.25
2023-02-13T20:39:57.498Z,81.50
2023-02-13T20:42:27.363Z,81.88
2023-02-13T20:45:00.215Z,81.61
2023-02-13T20:47:30.446Z,81.93
2023-02-13T20:50:00.358Z,81.74
2023-02-13T20:52:30.112Z,82.33
2023-02-13T20:55:01.462Z,82.22
2023-02-13T20:57:31.604Z,82.23
2023-02-13T21:00:04.814Z,82.36
2023-02-13T21:02:34.701Z,82.27
2023-02-13T21:05:04.720Z,82.14
2023-02-13T21:07:35.032Z,82.32
2023-02-13T21:10:05.901Z,82.69
2023-02-13T21:12:35.778Z,82.50
2023-02-13T21:15:08.877Z,82.51
2023-02-13T21:17:38.744Z,82.78
2023-02-13T21:20:10.500Z,82.65
2023-02-13T21:22:40.645Z,82.63
2023-02-13T21:25:10.952Z,82.81
2023-02-13T21:27:40.708Z,82.78
2023-02-13T21:30:14.692Z,83.31
2023-02-13T21:32:44.610Z,82.97
2023-02-13T21:35:14.736Z,82.99
2023-02-13T21:37:44.604Z,83.08
2023-02-13T21:40:15.537Z,83.19
2023-02-13T21:42:45.400Z,83.07
2023-02-13T21:45:17.857Z,82.98
2023-02-13T21:47:47.651Z,83.39
2023-02-13T21:50:17.740Z,83.19
2023-02-13T21:52:47.552Z,83.08
2023-02-13T21:55:17.557Z,82.96
2023-02-13T21:57:47.561Z,82.96
2023-02-13T22:00:20.850Z,82.86
2023-02-13T22:02:51.088Z,82.92
2023-02-13T22:05:21.330Z,83.21
2023-02-13T22:08:03.478Z,83.13
2023-02-13T22:10:33.316Z,83.35
2023-02-13T22:13:03.050Z,83.19
2023-02-13T22:15:35.712Z,83.39
2023-02-13T22:18:05.683Z,83.24
2023-02-13T22:20:35.489Z,83.18
2023-02-13T22:23:05.679Z,83.43
2023-02-13T22:25:35.407Z,83.22
2023-02-13T22:28:05.197Z,83.47
2023-02-13T22:30:39.750Z,83.36
2023-02-13T22:33:09.724Z,83.58
2023-02-13T22:35:40.729Z,83.79
2023-02-13T22:38:11.076Z,83.93
2023-02-13T22:40:41.537Z,83.93
2023-02-13T22:43:11.719Z,83.91
2023-02-13T22:45:44.429Z,84.00
2023-02-13T22:48:14.576Z,84.05
2023-02-13T22:50:44.362Z,83.97
2023-02-13T22:53:14.146Z,83.95
2023-02-13T22:55:44.507Z,84.21
2023-02-13T22:58:15.491Z,84.30
2023-02-13T23:00:47.932Z,84.34
2023-02-13T23:03:18.386Z,84.31
2023-02-13T23:05:48.285Z,84.28
2023-02-13T23:08:18.375Z,84.33
2023-02-13T23:11:09.372Z,84.55
2023-02-13T23:13:36.546Z,84.38
2023-02-13T23:16:18.197Z,84.67
2023-02-13T23:18:45.678Z,84.92
2023-02-13T23:21:15.733Z,84.73
2023-02-13T23:23:45.664Z,85.00
2023-02-13T23:26:15.976Z,84.73
2023-02-13T23:28:45.810Z,84.50
2023-02-13T23:31:18.561Z,84.50
2023-02-13T23:33:48.483Z,85.04
2023-02-13T23:36:18.389Z,84.61
2023-02-13T23:38:48.130Z,84.51
2023-02-13T23:41:17.899Z,84.44
2023-02-13T23:43:47.677Z,84.56
2023-02-13T23:46:20.152Z,84.44
2023-02-13T23:48:50.346Z,84.34
2023-02-13T23:51:21.411Z,84.54
2023-02-13T23:53:54.982Z,84.77
2023-02-13T23:56:25.293Z,84.71
2023-02-13T23:58:55.451Z,84.71
